createdAt,value
2022-11-27T00:01:12.536Z,7.30
2022-11-27T00:03:40.314Z,7.30
2022-11-27T00:06:08.303Z,7.40
2022-11-27T00:08:35.042Z,7.50
2022-11-27T00:11:07.602Z,7.50
2022-11-27T00:13:34.564Z,7.50
2022-11-27T00:16:01.449Z,7.30
2022-11-27T00:18:29.667Z,7.30
2022-11-27T00:20:56.428Z,7.40
2022-11-27T00:23:23.177Z,7.40
2022-11-27T00:25:51.983Z,7.40
2022-11-27T00:28:19.862Z,7.30
2022-11-27T00:30:47.458Z,7.30
2022-11-27T00:33:14.346Z,7.30
2022-11-27T00:35:41.812Z,7.30
2022-11-27T00:38:08.585Z,7.30
2022-11-27T00:40:35.472Z,7.40
2022-11-27T00:43:02.325Z,7.30
2022-11-27T00:45:29.126Z,7.30
2022-11-27T00:47:56.155Z,7.30
2022-11-27T00:50:22.998Z,7.30
2022-11-27T00:52:49.742Z,7.20
2022-11-27T00:55:16.587Z,7.10
2022-11-27T00:57:43.357Z,7.10
2022-11-27T01:00:10.751Z,7.10
2022-11-27T01:02:37.592Z,7.20
2022-11-27T01:05:04.608Z,7.20
2022-11-27T01:07:31.393Z,7.20
2022-11-27T01:09:58.176Z,7.30
2022-11-27T01:12:24.983Z,7.20
2022-11-27T01:14:51.702Z,7.30
2022-11-27T01:17:18.582Z,7.20
2022-11-27T01:19:45.321Z,7.30
2022-11-27T01:22:12.048Z,7.20
2022-11-27T01:24:39.119Z,7.20
2022-11-27T01:27:06.024Z,7.20
2022-11-27T01:29:32.774Z,7.10
2022-11-27T01:31:59.615Z,7.20
2022-11-27T01:34:26.407Z,7.20
2022-11-27T01:36:53.165Z,7.10
2022-11-27T01:39:21.221Z,7.20
2022-11-27T01:41:48.871Z,7.20
2022-11-27T01:44:24.823Z,7.10
2022-11-27T01:47:00.086Z,7.20
2022-11-27T01:49:34.802Z,7.20
2022-11-27T01:52:07.236Z,7.10
2022-11-27T01:54:56.360Z,7.10
2022-11-27T01:57:38.760Z,7.20
2022-11-27T02:00:09.274Z,7.30
2022-11-27T02:02:36.080Z,7.30
2022-11-27T02:05:02.910Z,7.20
2022-11-27T02:07:29.743Z,7.30
2022-11-27T02:09:56.586Z,7.30
2022-11-27T02:12:31.548Z,7.40
2022-11-27T02:15:05.666Z,7.40
2022-11-27T02:17:35.238Z,7.30
2022-11-27T02:20:22.071Z,7.20
2022-11-27T02:23:06.725Z,7.30
2022-11-27T02:25:39.324Z,7.20
2022-11-27T02:28:15.012Z,7.20
2022-11-27T02:30:54.673Z,7.20
2022-11-27T02:33:23.432Z,7.10
2022-11-27T02:35:57.807Z,7.10
2022-11-27T02:38:33.684Z,7.10
2022-11-27T02:41:15.654Z,7.20
2022-11-27T02:43:47.008Z,7.20
2022-11-27T02:46:15.153Z,7.20
2022-11-27T02:48:51.516Z,7.10
2022-11-27T02:51:23.278Z,7.20
2022-11-27T02:54:00.759Z,7.20
2022-11-27T02:56:29.746Z,7.20
2022-11-27T02:58:59.707Z,7.20
2022-11-27T03:01:32.467Z,7.20
2022-11-27T03:04:01.861Z,7.20
2022-11-27T03:06:40.527Z,7.20
2022-11-27T03:09:13.249Z,7.20
2022-11-27T03:11:40.522Z,7.20
2022-11-27T03:14:09.569Z,7.10
2022-11-27T03:16:48.135Z,7.10
2022-11-27T03:19:32.706Z,7.10
2022-11-27T03:22:01.874Z,7.10
2022-11-27T03:24:30.362Z,7.10
2022-11-27T03:27:00.673Z,7.10
2022-11-27T03:29:43.231Z,7.20
2022-11-27T03:32:10.390Z,7.20
2022-11-27T03:34:37.885Z,7.20
2022-11-27T03:37:05.446Z,7.10
2022-11-27T03:39:33.045Z,7.10
2022-11-27T03:42:34.517Z,7.10
2022-11-27T03:45:18.373Z,7.10
2022-11-27T03:48:06.122Z,7.10
2022-11-27T03:51:22.462Z,7.10
2022-11-27T03:54:23.959Z,7.30
2022-11-27T03:57:00.950Z,7.10
2022-11-27T03:59:36.398Z,7.10
2022-11-27T04:02:03.451Z,7.10
2022-11-27T04:04:30.251Z,7.10
2022-11-27T04:06:57.043Z,7.20
2022-11-27T04:09:25.420Z,7.10
2022-11-27T04:11:52.198Z,7.20
2022-11-27T04:14:18.921Z,7.20
2022-11-27T04:16:45.711Z,7.20
2022-11-27T04:19:12.538Z,7.20
2022-11-27T04:21:39.288Z,7.30
2022-11-27T04:24:06.214Z,7.20
2022-11-27T04:26:33.020Z,7.10
2022-11-27T04:28:59.753Z,7.10
2022-11-27T04:31:26.587Z,7.30
2022-11-27T04:33:53.326Z,7.10
2022-11-27T04:36:20.090Z,7.20
2022-11-27T04:38:46.797Z,7.30
2022-11-27T04:41:13.580Z,7.40
2022-11-27T04:43:40.303Z,7.30
2022-11-27T04:46:07.020Z,7.30
2022-11-27T04:48:33.840Z,7.40
2022-11-27T04:51:00.562Z,7.20
2022-11-27T04:53:27.298Z,7.10
2022-11-27T04:55:54.017Z,7.20
2022-11-27T04:58:20.866Z,7.20
2022-11-27T05:00:47.723Z,7.20
2022-11-27T05:03:14.645Z,7.30
2022-11-27T05:05:41.442Z,7.20
2022-11-27T05:08:08.188Z,7.00
2022-11-27T05:10:34.996Z,7.10
2022-11-27T05:13:01.729Z,7.10
2022-11-27T05:15:28.506Z,7.00
2022-11-27T05:17:55.314Z,7.00
2022-11-27T05:20:22.224Z,7.20
2022-11-27T05:22:49.714Z,6.90
2022-11-27T05:25:16.570Z,6.90
2022-11-27T05:27:43.363Z,6.90
2022-11-27T05:30:10.447Z,7.00
2022-11-27T05:32:37.659Z,7.20
2022-11-27T05:35:04.641Z,7.10
2022-11-27T05:37:31.340Z,7.20
2022-11-27T05:39:58.087Z,7.20
2022-11-27T05:42:24.791Z,7.00
2022-11-27T05:44:56.698Z,6.90
2022-11-27T05:47:25.133Z,6.90
2022-11-27T05:49:51.955Z,6.90
2022-11-27T05:52:18.694Z,7.00
2022-11-27T05:54:45.591Z,7.00
2022-11-27T05:57:12.346Z,6.90
2022-11-27T05:59:39.150Z,6.90
2022-11-27T06:02:06.017Z,6.80
2022-11-27T06:04:34.681Z,6.90
2022-11-27T06:07:01.478Z,7.00
2022-11-27T06:09:28.193Z,6.90
2022-11-27T06:11:54.984Z,7.00
2022-11-27T06:14:21.901Z,6.90
2022-11-27T06:16:48.764Z,6.90
2022-11-27T06:19:15.721Z,6.80
2022-11-27T06:21:42.468Z,6.90
2022-11-27T06:24:09.313Z,6.90
2022-11-27T06:26:36.054Z,6.90
2022-11-27T06:29:03.277Z,7.00
2022-11-27T06:31:31.936Z,7.00
2022-11-27T06:33:59.698Z,6.90
2022-11-27T06:36:35.323Z,7.00
2022-11-27T06:39:04.633Z,7.00
2022-11-27T06:41:31.924Z,7.10
2022-11-27T06:44:00.303Z,7.10
2022-11-27T06:46:28.094Z,7.10
2022-11-27T06:48:55.059Z,7.10
2022-11-27T06:51:25.302Z,7.10
2022-11-27T06:53:53.078Z,7.10
2022-11-27T06:56:22.615Z,7.10
2022-11-27T06:58:54.138Z,7.00
2022-11-27T07:01:22.463Z,7.00
2022-11-27T07:03:49.480Z,6.90
2022-11-27T07:06:20.609Z,7.00
2022-11-27T07:08:47.542Z,7.00
2022-11-27T07:11:18.380Z,7.10
2022-11-27T07:13:49.733Z,7.20
2022-11-27T07:16:17.995Z,7.20
2022-11-27T07:18:48.193Z,7.20
2022-11-27T07:21:15.618Z,7.00
2022-11-27T07:23:42.557Z,7.10
2022-11-27T07:26:10.574Z,7.00
2022-11-27T07:28:37.983Z,6.90
2022-11-27T07:31:05.449Z,6.90
2022-11-27T07:33:32.559Z,7.00
2022-11-27T07:36:17.315Z,7.20
2022-11-27T07:38:44.997Z,7.20
2022-11-27T07:41:13.054Z,7.20
2022-11-27T07:43:41.249Z,7.20
2022-11-27T07:46:11.225Z,7.10
2022-11-27T07:48:38.044Z,7.20
2022-11-27T07:51:10.348Z,7.30
2022-11-27T07:53:38.358Z,7.10
2022-11-27T07:56:10.418Z,7.00
2022-11-27T07:58:37.588Z,7.00
2022-11-27T08:01:09.784Z,7.20
2022-11-27T08:03:37.105Z,7.20
2022-11-27T08:06:04.563Z,7.20
2022-11-27T08:08:31.490Z,7.10
2022-11-27T08:10:58.240Z,7.10
2022-11-27T08:13:24.969Z,7.30
2022-11-27T08:15:51.702Z,7.10
2022-11-27T08:18:18.473Z,7.20
2022-11-27T08:20:45.207Z,7.00
2022-11-27T08:23:11.963Z,7.00
2022-11-27T08:25:38.863Z,7.20
2022-11-27T08:28:05.862Z,7.20
2022-11-27T08:30:32.602Z,7.10
2022-11-27T08:32:59.367Z,7.20
2022-11-27T08:35:26.113Z,7.30
2022-11-27T08:37:53.115Z,7.30
2022-11-27T08:40:20.205Z,7.20
2022-11-27T08:42:46.923Z,7.00
2022-11-27T08:45:13.868Z,7.00
2022-11-27T08:47:40.660Z,7.10
2022-11-27T08:50:08.193Z,7.10
2022-11-27T08:52:34.912Z,7.00
2022-11-27T08:55:01.664Z,7.10
2022-11-27T08:57:28.405Z,7.10
2022-11-27T08:59:55.233Z,7.10
2022-11-27T09:02:21.950Z,7.20
2022-11-27T09:04:48.705Z,7.20
2022-11-27T09:07:16.766Z,7.10
2022-11-27T09:09:43.931Z,7.20
2022-11-27T09:12:10.670Z,7.10
2022-11-27T09:14:37.802Z,7.10
2022-11-27T09:17:04.892Z,7.20
2022-11-27T09:19:31.710Z,7.30
2022-11-27T09:21:59.512Z,7.30
2022-11-27T09:24:26.328Z,7.40
2022-11-27T09:26:53.102Z,7.30
2022-11-27T09:29:19.823Z,7.30
2022-11-27T09:31:46.895Z,7.30
2022-11-27T09:34:14.633Z,7.30
2022-11-27T09:36:41.456Z,7.30
2022-11-27T09:39:08.292Z,7.30
2022-11-27T09:41:49.849Z,7.20
2022-11-27T09:44:31.814Z,7.10
2022-11-27T09:47:28.620Z,7.00
2022-11-27T09:50:02.610Z,6.90
2022-11-27T09:52:44.709Z,6.90
2022-11-27T09:55:26.430Z,7.00
2022-11-27T09:58:04.574Z,7.00
2022-11-27T10:00:31.389Z,7.00
2022-11-27T10:02:58.331Z,7.00
2022-11-27T10:05:36.697Z,7.10
2022-11-27T10:08:35.136Z,7.10
2022-11-27T10:11:28.988Z,7.00
2022-11-27T10:14:13.660Z,7.20
2022-11-27T10:16:44.833Z,7.30
2022-11-27T10:19:42.841Z,7.10
2022-11-27T10:22:27.437Z,7.10
2022-11-27T10:25:34.674Z,7.10
2022-11-27T10:28:09.994Z,7.10
2022-11-27T10:30:45.509Z,7.20
2022-11-27T10:33:18.799Z,7.10
2022-11-27T10:35:48.003Z,7.00
2022-11-27T10:38:23.590Z,7.00
2022-11-27T10:41:03.732Z,7.20
2022-11-27T10:43:30.613Z,7.10
2022-11-27T10:46:14.151Z,7.30
2022-11-27T10:48:41.066Z,7.30
2022-11-27T10:51:21.197Z,7.40
2022-11-27T10:53:53.530Z,7.40
2022-11-27T10:56:46.854Z,7.40
2022-11-27T10:59:21.512Z,7.30
2022-11-27T11:01:50.137Z,7.40
2022-11-27T11:04:37.496Z,7.50
2022-11-27T11:07:21.908Z,7.50
2022-11-27T11:09:48.892Z,7.50
2022-11-27T11:12:21.220Z,7.50
2022-11-27T11:14:56.448Z,7.60
2022-11-27T11:17:37.732Z,7.60
2022-11-27T11:20:23.277Z,7.60
2022-11-27T11:22:51.540Z,7.60
2022-11-27T11:25:20.414Z,7.60
2022-11-27T11:27:49.566Z,7.60
2022-11-27T11:30:26.616Z,7.60
2022-11-27T11:33:01.793Z,7.70
2022-11-27T11:35:35.594Z,7.90
2022-11-27T11:38:06.082Z,8.00
2022-11-27T11:40:37.563Z,8.10
2022-11-27T11:43:10.036Z,8.10
2022-11-27T11:45:46.782Z,8.10
2022-11-27T11:48:26.161Z,8.10
2022-11-27T11:51:04.178Z,8.00
2022-11-27T11:53:36.994Z,8.00
2022-11-27T11:56:32.338Z,8.10
2022-11-27T11:59:10.935Z,8.10
2022-11-27T12:01:40.630Z,7.90
2022-11-27T12:04:23.385Z,7.90
2022-11-27T12:07:03.386Z,7.90
2022-11-27T12:10:10.609Z,7.90
2022-11-27T12:12:50.371Z,8.00
2022-11-27T12:15:32.335Z,8.20
2022-11-27T12:18:25.652Z,8.30
2022-11-27T12:21:15.058Z,8.30
2022-11-27T12:23:57.376Z,8.20
2022-11-27T12:26:50.766Z,8.10
2022-11-27T12:29:39.025Z,8.20
2022-11-27T12:32:28.604Z,8.20
2022-11-27T12:35:23.148Z,8.10
2022-11-27T12:37:52.671Z,8.20
2022-11-27T12:40:22.902Z,8.10
2022-11-27T12:43:30.845Z,8.20
2022-11-27T12:46:01.838Z,8.30
2022-11-27T12:48:56.045Z,8.20
2022-11-27T12:51:26.799Z,8.10
2022-11-27T12:54:19.841Z,8.10
2022-11-27T12:56:56.447Z,8.10
2022-11-27T13:00:04.506Z,8.10
2022-11-27T13:03:08.462Z,8.10
2022-11-27T13:05:42.997Z,7.90
2022-11-27T13:08:21.728Z,8.00
2022-11-27T13:10:56.799Z,8.10
2022-11-27T13:13:28.423Z,8.10
2022-11-27T13:16:00.976Z,8.20
2022-11-27T13:18:38.052Z,8.20
2022-11-27T13:21:10.945Z,8.30
2022-11-27T13:23:37.884Z,8.20
2022-11-27T13:26:11.819Z,8.00
2022-11-27T13:28:47.943Z,8.00
2022-11-27T13:31:24.456Z,8.00
2022-11-27T13:33:57.902Z,8.10
2022-11-27T13:36:37.144Z,8.00
2022-11-27T13:39:04.467Z,7.90
2022-11-27T13:41:39.998Z,7.90
2022-11-27T13:44:26.206Z,8.10
2022-11-27T13:46:57.921Z,8.00
2022-11-27T13:49:31.579Z,8.00
2022-11-27T13:52:11.723Z,8.10
2022-11-27T13:54:39.047Z,8.00
2022-11-27T13:57:19.760Z,8.20
2022-11-27T14:00:08.469Z,8.30
2022-11-27T14:02:48.537Z,8.20
2022-11-27T14:05:21.602Z,8.10
2022-11-27T14:07:54.336Z,8.10
2022-11-27T14:10:26.137Z,8.20
2022-11-27T14:13:09.997Z,8.10
2022-11-27T14:15:38.375Z,8.20
2022-11-27T14:18:16.741Z,8.20
2022-11-27T14:20:50.014Z,8.20
2022-11-27T14:23:48.571Z,8.20
2022-11-27T14:26:15.745Z,8.10
2022-11-27T14:28:45.144Z,8.10
2022-11-27T14:31:30.615Z,8.30
2022-11-27T14:36:44.994Z,8.20
2022-11-27T14:39:26.454Z,8.20
2022-11-27T14:42:04.895Z,8.20
2022-11-27T14:44:32.292Z,8.30
2022-11-27T14:47:04.080Z,8.20
2022-11-27T14:49:33.145Z,8.20
2022-11-27T14:52:06.915Z,8.20
2022-11-27T14:54:37.202Z,8.10
2022-11-27T14:57:05.484Z,8.30
2022-11-27T14:59:32.920Z,8.30
2022-11-27T15:02:28.901Z,8.30
2022-11-27T15:05:04.782Z,8.40
2022-11-27T15:07:41.865Z,8.50
2022-11-27T15:10:26.944Z,8.40
2022-11-27T15:12:54.315Z,8.40
2022-11-27T15:15:25.753Z,8.30
2022-11-27T15:17:59.056Z,8.30
2022-11-27T15:20:37.670Z,8.20
2022-11-27T15:23:13.001Z,8.20
2022-11-27T15:25:43.229Z,8.20
2022-11-27T15:28:29.622Z,8.10
2022-11-27T15:30:57.124Z,8.10
2022-11-27T15:33:32.550Z,8.00
2022-11-27T15:36:20.114Z,8.10
2022-11-27T15:38:47.630Z,8.10
2022-11-27T15:41:26.618Z,8.10
2022-11-27T15:43:54.419Z,8.10
2022-11-27T15:46:33.970Z,8.00
2022-11-27T15:49:00.823Z,8.10
2022-11-27T15:51:27.628Z,8.10
2022-11-27T15:53:54.353Z,8.10
2022-11-27T15:56:21.174Z,8.10
2022-11-27T15:58:47.893Z,8.30
2022-11-27T16:01:14.773Z,8.30
2022-11-27T16:03:41.674Z,8.40
2022-11-27T16:06:09.099Z,8.20
2022-11-27T16:08:36.611Z,8.10
2022-11-27T16:11:09.347Z,8.20
2022-11-27T16:13:36.073Z,8.30
2022-11-27T16:16:04.898Z,8.30
2022-11-27T16:18:33.037Z,8.40
2022-11-27T16:21:04.543Z,8.40
2022-11-27T16:23:32.366Z,8.30
2022-11-27T16:25:59.688Z,8.20
2022-11-27T16:28:30.271Z,8.20
2022-11-27T16:31:00.645Z,8.20
2022-11-27T16:33:29.125Z,8.10
2022-11-27T16:35:56.265Z,8.10
2022-11-27T16:38:22.985Z,8.10
2022-11-27T16:40:50.621Z,8.30
2022-11-27T16:43:17.356Z,8.00
2022-11-27T16:45:44.198Z,8.00
2022-11-27T16:48:10.995Z,8.00
2022-11-27T16:50:37.799Z,8.20
2022-11-27T16:53:04.599Z,8.10
2022-11-27T16:55:32.103Z,8.10
2022-11-27T16:57:59.008Z,8.20
2022-11-27T17:00:26.046Z,8.20
2022-11-27T17:02:52.791Z,8.00
2022-11-27T17:05:19.730Z,7.90
2022-11-27T17:07:46.698Z,8.00
2022-11-27T17:10:14.087Z,7.80
2022-11-27T17:12:40.848Z,7.90
2022-11-27T17:15:08.127Z,7.90
2022-11-27T17:17:39.873Z,8.00
2022-11-27T17:20:07.602Z,7.80
2022-11-27T17:22:34.445Z,7.90
2022-11-27T17:25:01.262Z,8.10
2022-11-27T17:27:28.056Z,8.00
2022-11-27T17:29:54.883Z,7.90
2022-11-27T17:32:21.634Z,7.80
2022-11-27T17:34:49.118Z,7.90
2022-11-27T17:37:15.882Z,7.80
2022-11-27T17:39:43.741Z,7.70
2022-11-27T17:42:13.879Z,7.70
2022-11-27T17:44:43.024Z,7.80
2022-11-27T17:47:09.804Z,7.80
2022-11-27T17:49:36.627Z,7.70
2022-11-27T17:52:06.474Z,7.60
2022-11-27T17:54:34.640Z,7.80
2022-11-27T17:57:01.415Z,7.60
2022-11-27T17:59:28.398Z,7.80
2022-11-27T18:01:55.277Z,7.80
2022-11-27T18:04:22.148Z,7.70
2022-11-27T18:06:48.881Z,7.70
2022-11-27T18:09:15.606Z,7.70
2022-11-27T18:11:42.407Z,7.70
2022-11-27T18:14:12.523Z,7.70
2022-11-27T18:16:39.660Z,7.70
2022-11-27T18:19:09.409Z,7.60
2022-11-27T18:21:37.607Z,7.50
2022-11-27T18:27:09.538Z,7.60
2022-11-27T18:29:39.184Z,7.50
2022-11-27T18:32:06.765Z,7.60
2022-11-27T18:34:34.052Z,7.50
2022-11-27T18:37:00.952Z,7.60
2022-11-27T18:39:27.827Z,7.50
2022-11-27T18:41:54.680Z,7.70
2022-11-27T18:44:21.481Z,7.50
2022-11-27T18:46:48.261Z,7.60
2022-11-27T18:49:15.031Z,7.50
2022-11-27T18:51:41.773Z,7.50
2022-11-27T18:54:08.571Z,7.50
2022-11-27T18:56:37.098Z,7.60
2022-11-27T18:59:05.676Z,7.50
2022-11-27T19:01:39.559Z,7.50
2022-11-27T19:04:08.438Z,7.60
2022-11-27T19:06:36.949Z,7.60
2022-11-27T19:09:04.811Z,7.40
2022-11-27T19:11:32.827Z,7.50
2022-11-27T19:14:00.028Z,7.50
2022-11-27T19:16:31.265Z,7.40
2022-11-27T19:18:59.844Z,7.50
2022-11-27T19:21:29.215Z,7.60
2022-11-27T19:23:57.769Z,7.50
2022-11-27T19:26:28.736Z,7.50
2022-11-27T19:28:58.187Z,7.50
2022-11-27T19:31:26.258Z,7.50
2022-11-27T19:33:59.066Z,7.60
2022-11-27T19:36:25.855Z,7.80
2022-11-27T19:38:59.073Z,7.70
2022-11-27T19:41:26.911Z,7.70
2022-11-27T19:43:53.708Z,7.90
2022-11-27T19:46:26.730Z,7.90
2022-11-27T19:49:02.878Z,7.70
2022-11-27T19:51:34.240Z,7.70
2022-11-27T19:54:05.673Z,7.70
2022-11-27T19:56:37.404Z,7.60
2022-11-27T19:59:04.587Z,7.70
2022-11-27T20:01:31.490Z,7.90
2022-11-27T20:03:58.954Z,7.90
2022-11-27T20:06:26.946Z,7.90
2022-11-27T20:08:58.702Z,8.10
2022-11-27T20:11:29.766Z,8.20
2022-11-27T20:13:59.920Z,8.10
2022-11-27T20:16:26.884Z,8.10
2022-11-27T20:18:53.912Z,8.00
2022-11-27T20:21:23.238Z,8.00
2022-11-27T20:23:51.518Z,8.00
2022-11-27T20:26:26.903Z,8.00
2022-11-27T20:28:54.832Z,8.10
2022-11-27T20:31:28.055Z,8.10
2022-11-27T20:33:57.905Z,8.20
2022-11-27T20:36:25.588Z,8.30
2022-11-27T20:38:55.478Z,8.30
2022-11-27T20:41:22.674Z,8.30
2022-11-27T20:43:50.818Z,8.30
2022-11-27T20:46:18.369Z,8.30
2022-11-27T20:48:47.012Z,8.40
2022-11-27T20:51:20.643Z,8.20
2022-11-27T20:53:48.575Z,8.40
2022-11-27T20:56:17.803Z,8.40
2022-11-27T20:58:45.347Z,8.30
2022-11-27T21:01:16.814Z,8.40
2022-11-27T21:03:44.287Z,8.40
2022-11-27T21:06:11.183Z,8.30
2022-11-27T21:08:38.308Z,8.30
2022-11-27T21:11:13.043Z,8.40
2022-11-27T21:13:40.168Z,8.50
2022-11-27T21:16:09.786Z,8.60
2022-11-27T21:18:36.694Z,8.50
2022-11-27T21:21:12.280Z,8.60
2022-11-27T21:23:40.883Z,8.70
2022-11-27T21:26:09.134Z,8.50
2022-11-27T21:28:35.896Z,8.50
2022-11-27T21:31:11.691Z,8.70
2022-11-27T21:33:38.414Z,8.60
2022-11-27T21:36:05.489Z,8.60
2022-11-27T21:38:32.297Z,8.60
2022-11-27T21:40:59.144Z,8.40
2022-11-27T21:43:25.851Z,8.40
2022-11-27T21:45:52.792Z,8.50
2022-11-27T21:48:20.627Z,8.60
2022-11-27T21:50:47.441Z,8.50
2022-11-27T21:53:14.233Z,8.50
2022-11-27T21:55:43.988Z,8.50
2022-11-27T21:58:11.175Z,8.70
2022-11-27T22:00:38.157Z,8.70
2022-11-27T22:03:04.978Z,8.60
2022-11-27T22:05:31.799Z,8.60
2022-11-27T22:07:58.619Z,8.60
2022-11-27T22:10:25.463Z,8.50
2022-11-27T22:12:52.231Z,8.70
2022-11-27T22:15:19.330Z,8.60
2022-11-27T22:17:46.115Z,8.60
2022-11-27T22:20:13.554Z,8.70
2022-11-27T22:22:40.400Z,8.80
2022-11-27T22:25:07.473Z,8.80
2022-11-27T22:27:34.262Z,8.90
2022-11-27T22:30:01.050Z,8.80
2022-11-27T22:32:27.783Z,8.80
2022-11-27T22:34:54.536Z,8.70
2022-11-27T22:37:21.309Z,8.60
2022-11-27T22:39:48.089Z,8.70
2022-11-27T22:42:14.825Z,8.60
2022-11-27T22:44:42.141Z,8.70
2022-11-27T22:47:09.123Z,8.70
2022-11-27T22:49:36.140Z,8.80
2022-11-27T22:52:02.980Z,8.80
2022-11-27T22:54:29.777Z,8.70
2022-11-27T22:56:56.478Z,8.80
2022-11-27T22:59:32.612Z,8.90
2022-11-27T23:02:01.389Z,8.90
2022-11-27T23:04:28.245Z,9.00
2022-11-27T23:06:54.975Z,8.90
2022-11-27T23:09:21.856Z,8.80
2022-11-27T23:11:48.592Z,8.70
2022-11-27T23:14:15.520Z,8.70
2022-11-27T23:16:42.649Z,8.70
2022-11-27T23:19:10.457Z,8.70
2022-11-27T23:21:39.079Z,8.70
2022-11-27T23:24:07.975Z,8.70
2022-11-27T23:26:35.039Z,8.60
2022-11-27T23:29:02.181Z,8.50
2022-11-27T23:31:32.600Z,8.50
2022-11-27T23:34:03.924Z,8.70
2022-11-27T23:36:31.959Z,8.70
2022-11-27T23:39:04.116Z,8.80
2022-11-27T23:41:31.240Z,8.60
2022-11-27T23:43:58.189Z,8.70
2022-11-27T23:46:28.502Z,8.70
2022-11-27T23:48:56.473Z,8.80
2022-11-27T23:51:26.312Z,8.70
2022-11-27T23:53:53.801Z,8.60
2022-11-27T23:56:23.518Z,8.50
2022-11-27T23:58:50.302Z,8.40
